<?xml version="1.0" encoding="UTF-8" standalone="no" ?>
<gpx xmlns="http://www.topografix.com/GPX/1/1" creator="CompeGPS" version="1.1" xmlns:xsi="http://www.w3.org/2001/XMLSchema-instance" xsi:schemaLocation="http://www.topografix.com/GPX/1/1 http://www.topografix.com/GPX/1/1/gpx.xsd http://www.garmin.com/xmlschemas/GpxExtensions/v3 http://www.garmin.com/xmlschemas/GpxExtensionsv3.xsd http://www.garmin.com/xmlschemas/TrackPointExtension/v1 http://www.garmin.com/xmlschemas/TrackPointExtensionv1.xsd" xmlns:gpxtpx="http://www.garmin.com/xmlschemas/TrackPointExtension/v1">
  <metadata>
    <link href="http://www.compegps.com">
      <text>CompeGPS TEAM, SL</text>
    </link>
    <time>2014-02-20T07:24:19Z</time>
    <bounds maxlat="43.538272" maxlon="1.554757" minlat="43.530057" minlon="1.529973"/>
  </metadata>
<wpt lat="43.530496" lon="1.530145">
<ele>140</ele>
<name>Labege-village</name>
</wpt>
<wpt lat="43.536347" lon="1.538154">
<ele>155</ele>
<name>Le Tricou</name>
</wpt>
<wpt lat="43.534839" lon="1.542534">
<ele>155</ele>
<name>Fontaine St-Sernin</name>
</wpt>
<wpt lat="43.532262" lon="1.552526">
<ele>170</ele>
<name>Marqueille</name>
</wpt>
<wpt lat="43.536632" lon="1.541022">
<ele>170</ele>
<name>Terres-Hautes</name>
</wpt>
<trk>
    <name>Labege - Fontaine St Sernin</name>
    <trkseg>
      <trkpt lat="43.530496" lon="1.530145">
        <ele>152.4</ele>
        <time>2014-02-19T15:30:44Z</time>
        <name>Labege-village</name>
      </trkpt>
      <trkpt lat="43.530402" lon="1.530316">
        <ele>152.2</ele>
        <time>2014-02-19T15:31:15Z</time>
      </trkpt>
      <trkpt lat="43.530360" lon="1.530450">
        <ele>152.3</ele>
        <time>2014-02-19T15:31:24Z</time>
      </trkpt>
      <trkpt lat="43.530302" lon="1.530576">
        <ele>152.4</ele>
        <time>2014-02-19T15:31:33Z</time>
      </trkpt>
      <trkpt lat="43.530264" lon="1.530717">
        <ele>152.4</ele>
        <time>2014-02-19T15:31:42Z</time>
      </trkpt>
      <trkpt lat="43.530210" lon="1.530840">
        <ele>152.6</ele>
        <time>2014-02-19T15:31:51Z</time>
      </trkpt>
      <trkpt lat="43.530172" lon="1.530967">
        <ele>152.8</ele>
        <time>2014-02-19T15:32:00Z</time>
      </trkpt>
      <trkpt lat="43.530122" lon="1.531088">
        <ele>152.8</ele>
        <time>2014-02-19T15:32:09Z</time>
      </trkpt>
      <trkpt lat="43.530077" lon="1.531249">
        <ele>152.8</ele>
        <time>2014-02-19T15:32:19Z</time>
      </trkpt>
      <trkpt lat="43.530057" lon="1.531425">
        <ele>152.5</ele>
        <time>2014-02-19T15:32:29Z</time>
      </trkpt>
      <trkpt lat="43.530146" lon="1.531503">
        <ele>152.6</ele>
        <time>2014-02-19T15:32:39Z</time>
      </trkpt>
      <trkpt lat="43.530243" lon="1.531574">
        <ele>152.7</ele>
        <time>2014-02-19T15:32:51Z</time>
      </trkpt>
      <trkpt lat="43.530337" lon="1.531668">
        <ele>152.5</ele>
        <time>2014-02-19T15:33:01Z</time>
      </trkpt>
      <trkpt lat="43.530425" lon="1.531767">
        <ele>152.3</ele>
        <time>2014-02-19T15:33:11Z</time>
      </trkpt>
      <trkpt lat="43.530509" lon="1.531856">
        <ele>151.9</ele>
        <time>2014-02-19T15:33:22Z</time>
      </trkpt>
      <trkpt lat="43.530608" lon="1.531931">
        <ele>151.2</ele>
        <time>2014-02-19T15:33:31Z</time>
      </trkpt>
      <trkpt lat="43.530687" lon="1.532033">
        <ele>150.6</ele>
        <time>2014-02-19T15:33:40Z</time>
      </trkpt>
      <trkpt lat="43.530772" lon="1.532137">
        <ele>149.9</ele>
        <time>2014-02-19T15:33:49Z</time>
      </trkpt>
      <trkpt lat="43.530847" lon="1.532240">
        <ele>149.2</ele>
        <time>2014-02-19T15:33:59Z</time>
      </trkpt>
      <trkpt lat="43.530921" lon="1.532334">
        <ele>148.9</ele>
        <time>2014-02-19T15:34:08Z</time>
      </trkpt>
      <trkpt lat="43.531012" lon="1.532454">
        <ele>149.1</ele>
        <time>2014-02-19T15:34:17Z</time>
      </trkpt>
      <trkpt lat="43.531091" lon="1.532549">
        <ele>149.6</ele>
        <time>2014-02-19T15:34:25Z</time>
      </trkpt>
      <trkpt lat="43.531175" lon="1.532654">
        <ele>149.9</ele>
        <time>2014-02-19T15:34:34Z</time>
      </trkpt>
      <trkpt lat="43.531266" lon="1.532764">
        <ele>150.5</ele>
        <time>2014-02-19T15:34:43Z</time>
      </trkpt>
      <trkpt lat="43.531343" lon="1.532875">
        <ele>151.0</ele>
        <time>2014-02-19T15:34:53Z</time>
      </trkpt>
      <trkpt lat="43.531437" lon="1.532981">
        <ele>151.7</ele>
        <time>2014-02-19T15:35:01Z</time>
      </trkpt>
      <trkpt lat="43.531524" lon="1.533082">
        <ele>151.9</ele>
        <time>2014-02-19T15:35:09Z</time>
      </trkpt>
      <trkpt lat="43.531585" lon="1.533195">
        <ele>152.6</ele>
        <time>2014-02-19T15:35:17Z</time>
      </trkpt>
      <trkpt lat="43.531682" lon="1.533287">
        <ele>153.1</ele>
        <time>2014-02-19T15:35:24Z</time>
      </trkpt>
      <trkpt lat="43.531766" lon="1.533392">
        <ele>153.6</ele>
        <time>2014-02-19T15:35:31Z</time>
      </trkpt>
      <trkpt lat="43.531827" lon="1.533509">
        <ele>154.0</ele>
        <time>2014-02-19T15:35:39Z</time>
      </trkpt>
      <trkpt lat="43.531909" lon="1.533589">
        <ele>154.2</ele>
        <time>2014-02-19T15:35:47Z</time>
      </trkpt>
      <trkpt lat="43.532001" lon="1.533664">
        <ele>154.2</ele>
        <time>2014-02-19T15:35:55Z</time>
      </trkpt>
      <trkpt lat="43.532080" lon="1.533748">
        <ele>154.4</ele>
        <time>2014-02-19T15:36:04Z</time>
      </trkpt>
      <trkpt lat="43.532203" lon="1.533785">
        <ele>154.6</ele>
        <time>2014-02-19T15:36:26Z</time>
      </trkpt>
      <trkpt lat="43.532277" lon="1.533854">
        <ele>154.4</ele>
        <time>2014-02-19T15:36:32Z</time>
      </trkpt>
      <trkpt lat="43.532375" lon="1.533828">
        <ele>154.3</ele>
        <time>2014-02-19T15:36:39Z</time>
      </trkpt>
      <trkpt lat="43.532455" lon="1.533733">
        <ele>154.6</ele>
        <time>2014-02-19T15:36:46Z</time>
      </trkpt>
      <trkpt lat="43.532523" lon="1.533633">
        <ele>154.4</ele>
        <time>2014-02-19T15:36:55Z</time>
      </trkpt>
      <trkpt lat="43.532632" lon="1.533520">
        <ele>154.3</ele>
        <time>2014-02-19T15:37:03Z</time>
      </trkpt>
      <trkpt lat="43.532710" lon="1.533409">
        <ele>154.5</ele>
        <time>2014-02-19T15:37:10Z</time>
      </trkpt>
      <trkpt lat="43.532798" lon="1.533291">
        <ele>154.6</ele>
        <time>2014-02-19T15:37:18Z</time>
      </trkpt>
      <trkpt lat="43.532889" lon="1.533194">
        <ele>154.4</ele>
        <time>2014-02-19T15:37:25Z</time>
      </trkpt>
      <trkpt lat="43.532973" lon="1.533108">
        <ele>154.5</ele>
        <time>2014-02-19T15:37:31Z</time>
      </trkpt>
      <trkpt lat="43.533059" lon="1.533065">
        <ele>154.4</ele>
        <time>2014-02-19T15:37:40Z</time>
      </trkpt>
      <trkpt lat="43.533129" lon="1.533197">
        <ele>154.0</ele>
        <time>2014-02-19T15:37:50Z</time>
      </trkpt>
      <trkpt lat="43.533200" lon="1.533319">
        <ele>154.1</ele>
        <time>2014-02-19T15:37:58Z</time>
      </trkpt>
      <trkpt lat="43.533263" lon="1.533434">
        <ele>153.9</ele>
        <time>2014-02-19T15:38:05Z</time>
      </trkpt>
      <trkpt lat="43.533335" lon="1.533541">
        <ele>154.1</ele>
        <time>2014-02-19T15:38:12Z</time>
      </trkpt>
      <trkpt lat="43.533404" lon="1.533637">
        <ele>154.1</ele>
        <time>2014-02-19T15:38:19Z</time>
      </trkpt>
      <trkpt lat="43.533464" lon="1.533760">
        <ele>154.3</ele>
        <time>2014-02-19T15:38:26Z</time>
      </trkpt>
      <trkpt lat="43.533516" lon="1.533876">
        <ele>154.6</ele>
        <time>2014-02-19T15:38:34Z</time>
      </trkpt>
      <trkpt lat="43.533592" lon="1.533983">
        <ele>154.7</ele>
        <time>2014-02-19T15:38:42Z</time>
      </trkpt>
      <trkpt lat="43.533652" lon="1.534109">
        <ele>154.8</ele>
        <time>2014-02-19T15:38:51Z</time>
      </trkpt>
      <trkpt lat="43.533705" lon="1.534239">
        <ele>154.9</ele>
        <time>2014-02-19T15:38:59Z</time>
      </trkpt>
      <trkpt lat="43.533762" lon="1.534354">
        <ele>154.8</ele>
        <time>2014-02-19T15:39:07Z</time>
      </trkpt>
      <trkpt lat="43.533799" lon="1.534486">
        <ele>154.9</ele>
        <time>2014-02-19T15:39:15Z</time>
      </trkpt>
      <trkpt lat="43.533851" lon="1.534595">
        <ele>155.1</ele>
        <time>2014-02-19T15:39:24Z</time>
      </trkpt>
      <trkpt lat="43.533913" lon="1.534691">
        <ele>155.0</ele>
        <time>2014-02-19T15:39:43Z</time>
      </trkpt>
      <trkpt lat="43.533977" lon="1.534804">
        <ele>155.2</ele>
        <time>2014-02-19T15:39:51Z</time>
      </trkpt>
      <trkpt lat="43.534039" lon="1.534917">
        <ele>155.3</ele>
        <time>2014-02-19T15:39:59Z</time>
      </trkpt>
      <trkpt lat="43.534101" lon="1.535026">
        <ele>156.0</ele>
        <time>2014-02-19T15:40:08Z</time>
      </trkpt>
      <trkpt lat="43.534164" lon="1.535160">
        <ele>155.9</ele>
        <time>2014-02-19T15:40:17Z</time>
      </trkpt>
      <trkpt lat="43.534238" lon="1.535272">
        <ele>155.9</ele>
        <time>2014-02-19T15:40:26Z</time>
      </trkpt>
      <trkpt lat="43.534313" lon="1.535379">
        <ele>156.0</ele>
        <time>2014-02-19T15:40:34Z</time>
      </trkpt>
      <trkpt lat="43.534391" lon="1.535497">
        <ele>156.2</ele>
        <time>2014-02-19T15:40:43Z</time>
      </trkpt>
      <trkpt lat="43.534465" lon="1.535622">
        <ele>156.5</ele>
        <time>2014-02-19T15:40:52Z</time>
      </trkpt>
      <trkpt lat="43.534533" lon="1.535731">
        <ele>156.6</ele>
        <time>2014-02-19T15:41:00Z</time>
      </trkpt>
      <trkpt lat="43.534606" lon="1.535831">
        <ele>156.5</ele>
        <time>2014-02-19T15:41:09Z</time>
      </trkpt>
      <trkpt lat="43.534691" lon="1.535926">
        <ele>156.5</ele>
        <time>2014-02-19T15:41:17Z</time>
      </trkpt>
      <trkpt lat="43.534761" lon="1.536032">
        <ele>156.6</ele>
        <time>2014-02-19T15:41:25Z</time>
      </trkpt>
      <trkpt lat="43.534831" lon="1.536124">
        <ele>156.9</ele>
        <time>2014-02-19T15:41:33Z</time>
      </trkpt>
      <trkpt lat="43.534954" lon="1.536076">
        <ele>157.2</ele>
        <time>2014-02-19T15:41:41Z</time>
      </trkpt>
      <trkpt lat="43.535047" lon="1.536008">
        <ele>157.1</ele>
        <time>2014-02-19T15:41:48Z</time>
      </trkpt>
      <trkpt lat="43.535137" lon="1.535932">
        <ele>156.9</ele>
        <time>2014-02-19T15:41:55Z</time>
      </trkpt>
      <trkpt lat="43.535217" lon="1.535843">
        <ele>156.4</ele>
        <time>2014-02-19T15:42:02Z</time>
      </trkpt>
      <trkpt lat="43.535300" lon="1.535773">
        <ele>156.0</ele>
        <time>2014-02-19T15:42:09Z</time>
      </trkpt>
      <trkpt lat="43.535385" lon="1.535686">
        <ele>155.7</ele>
        <time>2014-02-19T15:42:17Z</time>
      </trkpt>
      <trkpt lat="43.535471" lon="1.535587">
        <ele>155.4</ele>
        <time>2014-02-19T15:42:25Z</time>
      </trkpt>
      <trkpt lat="43.535568" lon="1.535481">
        <ele>155.2</ele>
        <time>2014-02-19T15:42:33Z</time>
      </trkpt>
      <trkpt lat="43.535656" lon="1.535409">
        <ele>155.0</ele>
        <time>2014-02-19T15:42:40Z</time>
      </trkpt>
      <trkpt lat="43.535733" lon="1.535326">
        <ele>154.9</ele>
        <time>2014-02-19T15:42:46Z</time>
      </trkpt>
      <trkpt lat="43.535805" lon="1.535241">
        <ele>154.9</ele>
        <time>2014-02-19T15:42:52Z</time>
      </trkpt>
      <trkpt lat="43.535899" lon="1.535198">
        <ele>155.0</ele>
        <time>2014-02-19T15:42:58Z</time>
      </trkpt>
      <trkpt lat="43.535960" lon="1.535286">
        <ele>154.8</ele>
        <time>2014-02-19T15:43:06Z</time>
      </trkpt>
      <trkpt lat="43.536040" lon="1.535322">
        <ele>154.1</ele>
        <time>2014-02-19T15:43:45Z</time>
      </trkpt>
      <trkpt lat="43.536140" lon="1.535391">
        <ele>154.6</ele>
        <time>2014-02-19T15:44:02Z</time>
      </trkpt>
      <trkpt lat="43.536215" lon="1.535502">
        <ele>154.7</ele>
        <time>2014-02-19T15:44:18Z</time>
      </trkpt>
      <trkpt lat="43.536270" lon="1.535611">
        <ele>154.8</ele>
        <time>2014-02-19T15:44:47Z</time>
      </trkpt>
      <trkpt lat="43.536367" lon="1.535688">
        <ele>155.4</ele>
        <time>2014-02-19T15:45:01Z</time>
      </trkpt>
      <trkpt lat="43.536433" lon="1.535820">
        <ele>156.0</ele>
        <time>2014-02-19T15:45:15Z</time>
      </trkpt>
      <trkpt lat="43.536441" lon="1.535982">
        <ele>157.1</ele>
        <time>2014-02-19T15:45:29Z</time>
      </trkpt>
      <trkpt lat="43.536420" lon="1.536158">
        <ele>158.0</ele>
        <time>2014-02-19T15:45:41Z</time>
      </trkpt>
      <trkpt lat="43.536388" lon="1.536321">
        <ele>159.1</ele>
        <time>2014-02-19T15:45:54Z</time>
      </trkpt>
      <trkpt lat="43.536384" lon="1.536482">
        <ele>160.0</ele>
        <time>2014-02-19T15:46:06Z</time>
      </trkpt>
      <trkpt lat="43.536427" lon="1.536596">
        <ele>161.2</ele>
        <time>2014-02-19T15:46:22Z</time>
      </trkpt>
      <trkpt lat="43.536440" lon="1.536674">
        <ele>161.2</ele>
        <time>2014-02-19T15:46:44Z</time>
      </trkpt>
      <trkpt lat="43.536391" lon="1.536828">
        <ele>162.4</ele>
        <time>2014-02-19T15:46:57Z</time>
      </trkpt>
      <trkpt lat="43.536363" lon="1.536974">
        <ele>163.4</ele>
        <time>2014-02-19T15:47:10Z</time>
      </trkpt>
      <trkpt lat="43.536356" lon="1.537155">
        <ele>164.3</ele>
        <time>2014-02-19T15:47:25Z</time>
      </trkpt>
      <trkpt lat="43.536306" lon="1.537307">
        <ele>164.7</ele>
        <time>2014-02-19T15:48:11Z</time>
      </trkpt>
      <trkpt lat="43.536302" lon="1.537473">
        <ele>164.9</ele>
        <time>2014-02-19T15:48:23Z</time>
      </trkpt>
      <trkpt lat="43.536321" lon="1.537675">
        <ele>166.1</ele>
        <time>2014-02-19T15:48:38Z</time>
      </trkpt>
      <trkpt lat="43.536328" lon="1.537894">
        <ele>167.2</ele>
        <time>2014-02-19T15:48:52Z</time>
      </trkpt>
      <trkpt lat="43.536393" lon="1.538045">
        <ele>168.5</ele>
        <time>2014-02-19T15:49:05Z</time>
      </trkpt>
      <trkpt lat="43.536388" lon="1.538099">
        <ele>169.2</ele>
        <time>2014-02-19T15:49:38Z</time>
      </trkpt>
      <trkpt lat="43.536347" lon="1.538154">
        <ele>168.9</ele>
        <time>2014-02-19T15:50:00Z</time>
        <name>Le Tricou</name>
      </trkpt>
      <trkpt lat="43.536238" lon="1.538131">
        <ele>167.1</ele>
        <time>2014-02-19T15:50:18Z</time>
      </trkpt>
      <trkpt lat="43.536101" lon="1.538098">
        <ele>163.7</ele>
        <time>2014-02-19T15:50:38Z</time>
      </trkpt>
      <trkpt lat="43.535995" lon="1.538229">
        <ele>161.6</ele>
        <time>2014-02-19T15:50:54Z</time>
      </trkpt>
      <trkpt lat="43.535944" lon="1.538389">
        <ele>161.2</ele>
        <time>2014-02-19T15:51:04Z</time>
      </trkpt>
      <trkpt lat="43.535930" lon="1.538531">
        <ele>161.1</ele>
        <time>2014-02-19T15:51:14Z</time>
      </trkpt>
      <trkpt lat="43.535903" lon="1.538665">
        <ele>161.1</ele>
        <time>2014-02-19T15:51:23Z</time>
      </trkpt>
      <trkpt lat="43.535880" lon="1.538803">
        <ele>161.4</ele>
        <time>2014-02-19T15:51:32Z</time>
      </trkpt>
      <trkpt lat="43.535818" lon="1.538964">
        <ele>161.2</ele>
        <time>2014-02-19T15:51:43Z</time>
      </trkpt>
      <trkpt lat="43.535807" lon="1.539111">
        <ele>161.2</ele>
        <time>2014-02-19T15:51:53Z</time>
      </trkpt>
      <trkpt lat="43.535800" lon="1.539233">
        <ele>161.3</ele>
        <time>2014-02-19T15:52:12Z</time>
      </trkpt>
      <trkpt lat="43.535781" lon="1.539247">
        <ele>161.3</ele>
        <time>2014-02-19T15:52:35Z</time>
      </trkpt>
      <trkpt lat="43.535771" lon="1.539331">
        <ele>161.4</ele>
        <time>2014-02-19T15:52:47Z</time>
      </trkpt>
      <trkpt lat="43.535737" lon="1.539458">
        <ele>161.4</ele>
        <time>2014-02-19T15:52:56Z</time>
      </trkpt>
      <trkpt lat="43.535672" lon="1.539598">
        <ele>161.4</ele>
        <time>2014-02-19T15:53:07Z</time>
      </trkpt>
      <trkpt lat="43.535623" lon="1.539703">
        <ele>161.2</ele>
        <time>2014-02-19T15:53:16Z</time>
      </trkpt>
      <trkpt lat="43.535580" lon="1.539825">
        <ele>161.0</ele>
        <time>2014-02-19T15:53:25Z</time>
      </trkpt>
      <trkpt lat="43.535550" lon="1.539956">
        <ele>161.1</ele>
        <time>2014-02-19T15:53:33Z</time>
      </trkpt>
      <trkpt lat="43.535524" lon="1.540090">
        <ele>161.4</ele>
        <time>2014-02-19T15:53:43Z</time>
      </trkpt>
      <trkpt lat="43.535494" lon="1.540272">
        <ele>161.6</ele>
        <time>2014-02-19T15:53:55Z</time>
      </trkpt>
      <trkpt lat="43.535431" lon="1.540418">
        <ele>159.3</ele>
        <time>2014-02-19T15:54:11Z</time>
      </trkpt>
      <trkpt lat="43.535438" lon="1.540601">
        <ele>158.7</ele>
        <time>2014-02-19T15:54:24Z</time>
      </trkpt>
      <trkpt lat="43.535399" lon="1.540730">
        <ele>159.3</ele>
        <time>2014-02-19T15:54:41Z</time>
      </trkpt>
      <trkpt lat="43.535386" lon="1.540901">
        <ele>160.6</ele>
        <time>2014-02-19T15:54:55Z</time>
      </trkpt>
      <trkpt lat="43.535319" lon="1.541070">
        <ele>161.8</ele>
        <time>2014-02-19T15:55:08Z</time>
      </trkpt>
      <trkpt lat="43.535253" lon="1.541217">
        <ele>162.0</ele>
        <time>2014-02-19T15:55:21Z</time>
      </trkpt>
      <trkpt lat="43.535204" lon="1.541435">
        <ele>162.6</ele>
        <time>2014-02-19T15:55:35Z</time>
      </trkpt>
      <trkpt lat="43.535113" lon="1.541690">
        <ele>163.5</ele>
        <time>2014-02-19T15:55:49Z</time>
      </trkpt>
      <trkpt lat="43.535057" lon="1.541777">
        <ele>162.7</ele>
        <time>2014-02-19T15:56:06Z</time>
      </trkpt>
      <trkpt lat="43.535067" lon="1.541834">
        <ele>160.2</ele>
        <time>2014-02-19T15:56:29Z</time>
      </trkpt>
      <trkpt lat="43.535058" lon="1.541885">
        <ele>160.4</ele>
        <time>2014-02-19T15:57:49Z</time>
      </trkpt>
      <trkpt lat="43.535041" lon="1.542046">
        <ele>161.2</ele>
        <time>2014-02-19T15:58:01Z</time>
      </trkpt>
      <trkpt lat="43.534983" lon="1.542248">
        <ele>162.1</ele>
        <time>2014-02-19T15:58:17Z</time>
      </trkpt>
      <trkpt lat="43.534908" lon="1.542440">
        <ele>161.9</ele>
        <time>2014-02-19T15:58:32Z</time>
      </trkpt>
      <trkpt lat="43.534839" lon="1.542534">
        <ele>162.8</ele>
        <time>2014-02-19T15:58:49Z</time>
        <name>Fontaine St-Sernin</name>
      </trkpt>
      <trkpt lat="43.534735" lon="1.542496">
        <ele>162.2</ele>
        <time>2014-02-19T15:59:06Z</time>
      </trkpt>
      <trkpt lat="43.534648" lon="1.542558">
        <ele>162.4</ele>
        <time>2014-02-19T15:59:20Z</time>
      </trkpt>
      <trkpt lat="43.534582" lon="1.542763">
        <ele>163.3</ele>
        <time>2014-02-19T15:59:37Z</time>
      </trkpt>
      <trkpt lat="43.534581" lon="1.542944">
        <ele>162.8</ele>
        <time>2014-02-19T15:59:50Z</time>
      </trkpt>
      <trkpt lat="43.534549" lon="1.543134">
        <ele>163.1</ele>
        <time>2014-02-19T16:00:02Z</time>
      </trkpt>
      <trkpt lat="43.534526" lon="1.543282">
        <ele>163.3</ele>
        <time>2014-02-19T16:00:14Z</time>
      </trkpt>
      <trkpt lat="43.534499" lon="1.543442">
        <ele>163.6</ele>
        <time>2014-02-19T16:00:26Z</time>
      </trkpt>
      <trkpt lat="43.534438" lon="1.543611">
        <ele>163.8</ele>
        <time>2014-02-19T16:00:39Z</time>
      </trkpt>
      <trkpt lat="43.534355" lon="1.543763">
        <ele>164.5</ele>
        <time>2014-02-19T16:00:51Z</time>
      </trkpt>
      <trkpt lat="43.534286" lon="1.543968">
        <ele>165.1</ele>
        <time>2014-02-19T16:01:02Z</time>
      </trkpt>
      <trkpt lat="43.534285" lon="1.544110">
        <ele>166.2</ele>
        <time>2014-02-19T16:01:12Z</time>
      </trkpt>
      <trkpt lat="43.534260" lon="1.544262">
        <ele>166.1</ele>
        <time>2014-02-19T16:01:23Z</time>
      </trkpt>
      <trkpt lat="43.534252" lon="1.544410">
        <ele>165.7</ele>
        <time>2014-02-19T16:01:32Z</time>
      </trkpt>
      <trkpt lat="43.534307" lon="1.544550">
        <ele>165.4</ele>
        <time>2014-02-19T16:01:46Z</time>
      </trkpt>
      <trkpt lat="43.534287" lon="1.544732">
        <ele>165.1</ele>
        <time>2014-02-19T16:02:00Z</time>
      </trkpt>
      <trkpt lat="43.534286" lon="1.544921">
        <ele>165.2</ele>
        <time>2014-02-19T16:02:12Z</time>
      </trkpt>
      <trkpt lat="43.534215" lon="1.545097">
        <ele>165.8</ele>
        <time>2014-02-19T16:02:26Z</time>
      </trkpt>
      <trkpt lat="43.534216" lon="1.545241">
        <ele>167.1</ele>
        <time>2014-02-19T16:02:40Z</time>
      </trkpt>
      <trkpt lat="43.534259" lon="1.545353">
        <ele>166.2</ele>
        <time>2014-02-19T16:02:55Z</time>
      </trkpt>
      <trkpt lat="43.534220" lon="1.545481">
        <ele>166.3</ele>
        <time>2014-02-19T16:03:06Z</time>
      </trkpt>
      <trkpt lat="43.534199" lon="1.545645">
        <ele>166.8</ele>
        <time>2014-02-19T16:03:18Z</time>
      </trkpt>
      <trkpt lat="43.534140" lon="1.545831">
        <ele>166.4</ele>
        <time>2014-02-19T16:03:31Z</time>
      </trkpt>
      <trkpt lat="43.534030" lon="1.545962">
        <ele>168.2</ele>
        <time>2014-02-19T16:03:45Z</time>
      </trkpt>
      <trkpt lat="43.533992" lon="1.546166">
        <ele>168.7</ele>
        <time>2014-02-19T16:03:58Z</time>
      </trkpt>
      <trkpt lat="43.533982" lon="1.546337">
        <ele>167.4</ele>
        <time>2014-02-19T16:04:10Z</time>
      </trkpt>
      <trkpt lat="43.533916" lon="1.546482">
        <ele>167.1</ele>
        <time>2014-02-19T16:04:22Z</time>
      </trkpt>
      <trkpt lat="43.533796" lon="1.546651">
        <ele>167.3</ele>
        <time>2014-02-19T16:04:36Z</time>
      </trkpt>
      <trkpt lat="43.533706" lon="1.546736">
        <ele>167.4</ele>
        <time>2014-02-19T16:04:47Z</time>
      </trkpt>
      <trkpt lat="43.533711" lon="1.546902">
        <ele>167.9</ele>
        <time>2014-02-19T16:04:58Z</time>
      </trkpt>
      <trkpt lat="43.533710" lon="1.547065">
        <ele>168.1</ele>
        <time>2014-02-19T16:05:09Z</time>
      </trkpt>
      <trkpt lat="43.533680" lon="1.547228">
        <ele>168.5</ele>
        <time>2014-02-19T16:05:22Z</time>
      </trkpt>
      <trkpt lat="43.533624" lon="1.547401">
        <ele>168.5</ele>
        <time>2014-02-19T16:05:34Z</time>
      </trkpt>
      <trkpt lat="43.533599" lon="1.547571">
        <ele>168.4</ele>
        <time>2014-02-19T16:05:48Z</time>
      </trkpt>
      <trkpt lat="43.533536" lon="1.547774">
        <ele>168.5</ele>
        <time>2014-02-19T16:06:03Z</time>
      </trkpt>
      <trkpt lat="43.533455" lon="1.548020">
        <ele>168.3</ele>
        <time>2014-02-19T16:06:16Z</time>
      </trkpt>
      <trkpt lat="43.533419" lon="1.548194">
        <ele>168.5</ele>
        <time>2014-02-19T16:06:29Z</time>
      </trkpt>
      <trkpt lat="43.533353" lon="1.548366">
        <ele>169.1</ele>
        <time>2014-02-19T16:06:44Z</time>
      </trkpt>
      <trkpt lat="43.533290" lon="1.548579">
        <ele>170.0</ele>
        <time>2014-02-19T16:06:59Z</time>
      </trkpt>
      <trkpt lat="43.533192" lon="1.548843">
        <ele>170.0</ele>
        <time>2014-02-19T16:07:13Z</time>
      </trkpt>
      <trkpt lat="43.533138" lon="1.549013">
        <ele>170.1</ele>
        <time>2014-02-19T16:07:28Z</time>
      </trkpt>
      <trkpt lat="43.533081" lon="1.549214">
        <ele>170.1</ele>
        <time>2014-02-19T16:07:41Z</time>
      </trkpt>
      <trkpt lat="43.533045" lon="1.549434">
        <ele>169.9</ele>
        <time>2014-02-19T16:07:53Z</time>
      </trkpt>
      <trkpt lat="43.532987" lon="1.549585">
        <ele>169.8</ele>
        <time>2014-02-19T16:08:06Z</time>
      </trkpt>
      <trkpt lat="43.532921" lon="1.549766">
        <ele>169.9</ele>
        <time>2014-02-19T16:08:21Z</time>
      </trkpt>
      <trkpt lat="43.532899" lon="1.549936">
        <ele>170.2</ele>
        <time>2014-02-19T16:08:35Z</time>
      </trkpt>
      <trkpt lat="43.532907" lon="1.550112">
        <ele>169.9</ele>
        <time>2014-02-19T16:08:48Z</time>
      </trkpt>
      <trkpt lat="43.532890" lon="1.550281">
        <ele>170.2</ele>
        <time>2014-02-19T16:09:00Z</time>
      </trkpt>
      <trkpt lat="43.532853" lon="1.550474">
        <ele>170.2</ele>
        <time>2014-02-19T16:09:14Z</time>
      </trkpt>
      <trkpt lat="43.532792" lon="1.550696">
        <ele>170.4</ele>
        <time>2014-02-19T16:09:26Z</time>
      </trkpt>
      <trkpt lat="43.532714" lon="1.550873">
        <ele>170.6</ele>
        <time>2014-02-19T16:09:39Z</time>
      </trkpt>
      <trkpt lat="43.532644" lon="1.551054">
        <ele>170.5</ele>
        <time>2014-02-19T16:09:52Z</time>
      </trkpt>
      <trkpt lat="43.532606" lon="1.551225">
        <ele>170.6</ele>
        <time>2014-02-19T16:10:04Z</time>
      </trkpt>
      <trkpt lat="43.532549" lon="1.551443">
        <ele>170.8</ele>
        <time>2014-02-19T16:10:18Z</time>
      </trkpt>
      <trkpt lat="43.532463" lon="1.551591">
        <ele>171.0</ele>
        <time>2014-02-19T16:10:28Z</time>
      </trkpt>
      <trkpt lat="43.532395" lon="1.551738">
        <ele>171.8</ele>
        <time>2014-02-19T16:10:39Z</time>
      </trkpt>
      <trkpt lat="43.532351" lon="1.551916">
        <ele>173.3</ele>
        <time>2014-02-19T16:10:51Z</time>
      </trkpt>
      <trkpt lat="43.532314" lon="1.552078">
        <ele>173.9</ele>
        <time>2014-02-19T16:11:03Z</time>
      </trkpt>
      <trkpt lat="43.532283" lon="1.552247">
        <ele>173.7</ele>
        <time>2014-02-19T16:11:14Z</time>
      </trkpt>
      <trkpt lat="43.532255" lon="1.552409">
        <ele>173.3</ele>
        <time>2014-02-19T16:11:24Z</time>
      </trkpt>
      <trkpt lat="43.532262" lon="1.552526">
        <ele>173.9</ele>
        <time>2014-02-19T16:11:37Z</time>
        <name>Marqueille</name>
      </trkpt>
      <trkpt lat="43.532348" lon="1.552581">
        <ele>174.4</ele>
        <time>2014-02-19T16:11:45Z</time>
      </trkpt>
      <trkpt lat="43.532428" lon="1.552666">
        <ele>174.3</ele>
        <time>2014-02-19T16:11:53Z</time>
      </trkpt>
      <trkpt lat="43.532520" lon="1.552727">
        <ele>174.3</ele>
        <time>2014-02-19T16:12:01Z</time>
      </trkpt>
      <trkpt lat="43.532614" lon="1.552787">
        <ele>174.7</ele>
        <time>2014-02-19T16:12:09Z</time>
      </trkpt>
      <trkpt lat="43.532723" lon="1.552834">
        <ele>174.9</ele>
        <time>2014-02-19T16:12:18Z</time>
      </trkpt>
      <trkpt lat="43.532808" lon="1.552893">
        <ele>175.0</ele>
        <time>2014-02-19T16:12:27Z</time>
      </trkpt>
      <trkpt lat="43.532895" lon="1.552957">
        <ele>175.5</ele>
        <time>2014-02-19T16:12:36Z</time>
      </trkpt>
      <trkpt lat="43.532996" lon="1.553006">
        <ele>175.9</ele>
        <time>2014-02-19T16:12:45Z</time>
      </trkpt>
      <trkpt lat="43.533079" lon="1.553065">
        <ele>176.4</ele>
        <time>2014-02-19T16:12:54Z</time>
      </trkpt>
      <trkpt lat="43.533160" lon="1.553132">
        <ele>176.8</ele>
        <time>2014-02-19T16:13:03Z</time>
      </trkpt>
      <trkpt lat="43.533250" lon="1.553187">
        <ele>177.2</ele>
        <time>2014-02-19T16:13:13Z</time>
      </trkpt>
      <trkpt lat="43.533380" lon="1.553221">
        <ele>177.4</ele>
        <time>2014-02-19T16:13:22Z</time>
      </trkpt>
      <trkpt lat="43.533468" lon="1.553309">
        <ele>177.7</ele>
        <time>2014-02-19T16:13:31Z</time>
      </trkpt>
      <trkpt lat="43.533567" lon="1.553380">
        <ele>177.9</ele>
        <time>2014-02-19T16:13:41Z</time>
      </trkpt>
      <trkpt lat="43.533606" lon="1.553520">
        <ele>177.9</ele>
        <time>2014-02-19T16:13:50Z</time>
      </trkpt>
      <trkpt lat="43.533638" lon="1.553645">
        <ele>178.3</ele>
        <time>2014-02-19T16:13:59Z</time>
      </trkpt>
      <trkpt lat="43.533700" lon="1.553751">
        <ele>178.9</ele>
        <time>2014-02-19T16:14:08Z</time>
      </trkpt>
      <trkpt lat="43.533772" lon="1.553853">
        <ele>179.0</ele>
        <time>2014-02-19T16:14:17Z</time>
      </trkpt>
      <trkpt lat="43.533859" lon="1.553936">
        <ele>179.0</ele>
        <time>2014-02-19T16:14:27Z</time>
      </trkpt>
      <trkpt lat="43.533947" lon="1.554031">
        <ele>179.4</ele>
        <time>2014-02-19T16:14:37Z</time>
      </trkpt>
      <trkpt lat="43.534035" lon="1.554097">
        <ele>179.6</ele>
        <time>2014-02-19T16:14:46Z</time>
      </trkpt>
      <trkpt lat="43.534137" lon="1.554180">
        <ele>180.0</ele>
        <time>2014-02-19T16:14:56Z</time>
      </trkpt>
      <trkpt lat="43.534222" lon="1.554262">
        <ele>180.1</ele>
        <time>2014-02-19T16:15:06Z</time>
      </trkpt>
      <trkpt lat="43.534331" lon="1.554316">
        <ele>180.5</ele>
        <time>2014-02-19T16:15:16Z</time>
      </trkpt>
      <trkpt lat="43.534385" lon="1.554425">
        <ele>180.6</ele>
        <time>2014-02-19T16:15:24Z</time>
      </trkpt>
      <trkpt lat="43.534462" lon="1.554541">
        <ele>181.4</ele>
        <time>2014-02-19T16:15:34Z</time>
      </trkpt>
      <trkpt lat="43.534552" lon="1.554616">
        <ele>182.2</ele>
        <time>2014-02-19T16:15:43Z</time>
      </trkpt>
      <trkpt lat="43.534641" lon="1.554698">
        <ele>182.8</ele>
        <time>2014-02-19T16:15:53Z</time>
      </trkpt>
      <trkpt lat="43.534749" lon="1.554756">
        <ele>183.6</ele>
        <time>2014-02-19T16:16:03Z</time>
      </trkpt>
      <trkpt lat="43.534876" lon="1.554738">
        <ele>184.6</ele>
        <time>2014-02-19T16:16:12Z</time>
      </trkpt>
      <trkpt lat="43.534962" lon="1.554675">
        <ele>185.2</ele>
        <time>2014-02-19T16:16:20Z</time>
      </trkpt>
      <trkpt lat="43.535049" lon="1.554601">
        <ele>185.4</ele>
        <time>2014-02-19T16:16:29Z</time>
      </trkpt>
      <trkpt lat="43.535139" lon="1.554536">
        <ele>185.3</ele>
        <time>2014-02-19T16:16:38Z</time>
      </trkpt>
      <trkpt lat="43.535229" lon="1.554478">
        <ele>185.2</ele>
        <time>2014-02-19T16:16:47Z</time>
      </trkpt>
      <trkpt lat="43.535326" lon="1.554424">
        <ele>185.2</ele>
        <time>2014-02-19T16:16:56Z</time>
      </trkpt>
      <trkpt lat="43.535414" lon="1.554380">
        <ele>185.5</ele>
        <time>2014-02-19T16:17:04Z</time>
      </trkpt>
      <trkpt lat="43.535503" lon="1.554339">
        <ele>185.5</ele>
        <time>2014-02-19T16:17:12Z</time>
      </trkpt>
      <trkpt lat="43.535593" lon="1.554300">
        <ele>185.5</ele>
        <time>2014-02-19T16:17:20Z</time>
      </trkpt>
      <trkpt lat="43.535688" lon="1.554280">
        <ele>185.4</ele>
        <time>2014-02-19T16:17:29Z</time>
      </trkpt>
      <trkpt lat="43.535783" lon="1.554244">
        <ele>185.4</ele>
        <time>2014-02-19T16:17:38Z</time>
      </trkpt>
      <trkpt lat="43.535881" lon="1.554208">
        <ele>185.4</ele>
        <time>2014-02-19T16:17:46Z</time>
      </trkpt>
      <trkpt lat="43.535979" lon="1.554159">
        <ele>185.3</ele>
        <time>2014-02-19T16:17:54Z</time>
      </trkpt>
      <trkpt lat="43.536072" lon="1.554102">
        <ele>185.5</ele>
        <time>2014-02-19T16:18:03Z</time>
      </trkpt>
      <trkpt lat="43.536158" lon="1.554021">
        <ele>185.2</ele>
        <time>2014-02-19T16:18:13Z</time>
      </trkpt>
      <trkpt lat="43.536247" lon="1.553946">
        <ele>185.2</ele>
        <time>2014-02-19T16:18:22Z</time>
      </trkpt>
      <trkpt lat="43.536316" lon="1.553873">
        <ele>184.8</ele>
        <time>2014-02-19T16:18:30Z</time>
      </trkpt>
      <trkpt lat="43.536404" lon="1.553808">
        <ele>184.8</ele>
        <time>2014-02-19T16:18:38Z</time>
      </trkpt>
      <trkpt lat="43.536484" lon="1.553715">
        <ele>184.7</ele>
        <time>2014-02-19T16:18:47Z</time>
      </trkpt>
      <trkpt lat="43.536575" lon="1.553626">
        <ele>184.7</ele>
        <time>2014-02-19T16:18:56Z</time>
      </trkpt>
      <trkpt lat="43.536671" lon="1.553547">
        <ele>184.5</ele>
        <time>2014-02-19T16:19:05Z</time>
      </trkpt>
      <trkpt lat="43.536750" lon="1.553449">
        <ele>184.6</ele>
        <time>2014-02-19T16:19:14Z</time>
      </trkpt>
      <trkpt lat="43.536830" lon="1.553374">
        <ele>184.4</ele>
        <time>2014-02-19T16:19:22Z</time>
      </trkpt>
      <trkpt lat="43.536910" lon="1.553299">
        <ele>184.4</ele>
        <time>2014-02-19T16:19:30Z</time>
      </trkpt>
      <trkpt lat="43.536978" lon="1.553210">
        <ele>184.5</ele>
        <time>2014-02-19T16:19:38Z</time>
      </trkpt>
      <trkpt lat="43.537052" lon="1.553122">
        <ele>184.6</ele>
        <time>2014-02-19T16:19:46Z</time>
      </trkpt>
      <trkpt lat="43.537137" lon="1.553045">
        <ele>184.5</ele>
        <time>2014-02-19T16:19:55Z</time>
      </trkpt>
      <trkpt lat="43.537226" lon="1.552965">
        <ele>184.6</ele>
        <time>2014-02-19T16:20:05Z</time>
      </trkpt>
      <trkpt lat="43.537316" lon="1.552862">
        <ele>184.6</ele>
        <time>2014-02-19T16:20:14Z</time>
      </trkpt>
      <trkpt lat="43.537396" lon="1.552773">
        <ele>184.6</ele>
        <time>2014-02-19T16:20:24Z</time>
      </trkpt>
      <trkpt lat="43.537481" lon="1.552671">
        <ele>184.2</ele>
        <time>2014-02-19T16:20:35Z</time>
      </trkpt>
      <trkpt lat="43.537580" lon="1.552539">
        <ele>184.4</ele>
        <time>2014-02-19T16:20:47Z</time>
      </trkpt>
      <trkpt lat="43.537687" lon="1.552439">
        <ele>184.4</ele>
        <time>2014-02-19T16:20:58Z</time>
      </trkpt>
      <trkpt lat="43.537789" lon="1.552348">
        <ele>184.4</ele>
        <time>2014-02-19T16:21:08Z</time>
      </trkpt>
      <trkpt lat="43.537890" lon="1.552256">
        <ele>184.2</ele>
        <time>2014-02-19T16:21:17Z</time>
      </trkpt>
      <trkpt lat="43.537961" lon="1.552135">
        <ele>184.3</ele>
        <time>2014-02-19T16:21:29Z</time>
      </trkpt>
      <trkpt lat="43.538006" lon="1.552007">
        <ele>184.0</ele>
        <time>2014-02-19T16:21:59Z</time>
      </trkpt>
      <trkpt lat="43.538024" lon="1.551853">
        <ele>183.9</ele>
        <time>2014-02-19T16:22:12Z</time>
      </trkpt>
      <trkpt lat="43.538060" lon="1.551723">
        <ele>183.7</ele>
        <time>2014-02-19T16:22:22Z</time>
      </trkpt>
      <trkpt lat="43.538090" lon="1.551579">
        <ele>183.3</ele>
        <time>2014-02-19T16:22:32Z</time>
      </trkpt>
      <trkpt lat="43.538130" lon="1.551449">
        <ele>183.5</ele>
        <time>2014-02-19T16:22:41Z</time>
      </trkpt>
      <trkpt lat="43.538182" lon="1.551293">
        <ele>183.7</ele>
        <time>2014-02-19T16:22:51Z</time>
      </trkpt>
      <trkpt lat="43.538241" lon="1.551094">
        <ele>183.9</ele>
        <time>2014-02-19T16:23:04Z</time>
      </trkpt>
      <trkpt lat="43.538272" lon="1.550953">
        <ele>183.5</ele>
        <time>2014-02-19T16:23:13Z</time>
      </trkpt>
      <trkpt lat="43.538186" lon="1.550893">
        <ele>183.7</ele>
        <time>2014-02-19T16:23:32Z</time>
      </trkpt>
      <trkpt lat="43.538084" lon="1.550836">
        <ele>183.7</ele>
        <time>2014-02-19T16:23:41Z</time>
      </trkpt>
      <trkpt lat="43.537997" lon="1.550761">
        <ele>184.0</ele>
        <time>2014-02-19T16:23:50Z</time>
      </trkpt>
      <trkpt lat="43.537906" lon="1.550684">
        <ele>184.1</ele>
        <time>2014-02-19T16:23:59Z</time>
      </trkpt>
      <trkpt lat="43.537821" lon="1.550615">
        <ele>184.4</ele>
        <time>2014-02-19T16:24:07Z</time>
      </trkpt>
      <trkpt lat="43.537751" lon="1.550520">
        <ele>184.6</ele>
        <time>2014-02-19T16:24:16Z</time>
      </trkpt>
      <trkpt lat="43.537677" lon="1.550418">
        <ele>185.0</ele>
        <time>2014-02-19T16:24:25Z</time>
      </trkpt>
      <trkpt lat="43.537626" lon="1.550282">
        <ele>185.5</ele>
        <time>2014-02-19T16:24:35Z</time>
      </trkpt>
      <trkpt lat="43.537583" lon="1.550104">
        <ele>185.9</ele>
        <time>2014-02-19T16:24:44Z</time>
      </trkpt>
      <trkpt lat="43.537567" lon="1.549965">
        <ele>186.1</ele>
        <time>2014-02-19T16:24:54Z</time>
      </trkpt>
      <trkpt lat="43.537567" lon="1.549809">
        <ele>186.2</ele>
        <time>2014-02-19T16:25:04Z</time>
      </trkpt>
      <trkpt lat="43.537577" lon="1.549656">
        <ele>186.0</ele>
        <time>2014-02-19T16:25:14Z</time>
      </trkpt>
      <trkpt lat="43.537610" lon="1.549497">
        <ele>186.0</ele>
        <time>2014-02-19T16:25:25Z</time>
      </trkpt>
      <trkpt lat="43.537627" lon="1.549348">
        <ele>186.0</ele>
        <time>2014-02-19T16:25:34Z</time>
      </trkpt>
      <trkpt lat="43.537632" lon="1.549206">
        <ele>186.0</ele>
        <time>2014-02-19T16:25:44Z</time>
      </trkpt>
      <trkpt lat="43.537638" lon="1.549069">
        <ele>185.8</ele>
        <time>2014-02-19T16:25:53Z</time>
      </trkpt>
      <trkpt lat="43.537628" lon="1.548937">
        <ele>186.0</ele>
        <time>2014-02-19T16:26:03Z</time>
      </trkpt>
      <trkpt lat="43.537619" lon="1.548797">
        <ele>185.9</ele>
        <time>2014-02-19T16:26:12Z</time>
      </trkpt>
      <trkpt lat="43.537605" lon="1.548668">
        <ele>185.2</ele>
        <time>2014-02-19T16:26:21Z</time>
      </trkpt>
      <trkpt lat="43.537598" lon="1.548543">
        <ele>184.6</ele>
        <time>2014-02-19T16:26:30Z</time>
      </trkpt>
      <trkpt lat="43.537581" lon="1.548414">
        <ele>184.8</ele>
        <time>2014-02-19T16:26:39Z</time>
      </trkpt>
      <trkpt lat="43.537567" lon="1.548277">
        <ele>185.7</ele>
        <time>2014-02-19T16:26:49Z</time>
      </trkpt>
      <trkpt lat="43.537558" lon="1.548135">
        <ele>185.8</ele>
        <time>2014-02-19T16:27:00Z</time>
      </trkpt>
      <trkpt lat="43.537554" lon="1.548007">
        <ele>186.0</ele>
        <time>2014-02-19T16:27:09Z</time>
      </trkpt>
      <trkpt lat="43.537544" lon="1.547869">
        <ele>186.0</ele>
        <time>2014-02-19T16:27:20Z</time>
      </trkpt>
      <trkpt lat="43.537531" lon="1.547737">
        <ele>186.2</ele>
        <time>2014-02-19T16:27:30Z</time>
      </trkpt>
      <trkpt lat="43.537512" lon="1.547606">
        <ele>186.3</ele>
        <time>2014-02-19T16:27:39Z</time>
      </trkpt>
      <trkpt lat="43.537489" lon="1.547475">
        <ele>186.5</ele>
        <time>2014-02-19T16:27:48Z</time>
      </trkpt>
      <trkpt lat="43.537467" lon="1.547350">
        <ele>186.8</ele>
        <time>2014-02-19T16:27:57Z</time>
      </trkpt>
      <trkpt lat="43.537447" lon="1.547201">
        <ele>187.4</ele>
        <time>2014-02-19T16:28:50Z</time>
      </trkpt>
      <trkpt lat="43.537448" lon="1.547087">
        <ele>187.1</ele>
        <time>2014-02-19T16:28:59Z</time>
      </trkpt>
      <trkpt lat="43.537428" lon="1.546962">
        <ele>187.4</ele>
        <time>2014-02-19T16:29:07Z</time>
      </trkpt>
      <trkpt lat="43.537417" lon="1.546835">
        <ele>187.7</ele>
        <time>2014-02-19T16:29:15Z</time>
      </trkpt>
      <trkpt lat="43.537396" lon="1.546691">
        <ele>188.1</ele>
        <time>2014-02-19T16:29:23Z</time>
      </trkpt>
      <trkpt lat="43.537389" lon="1.546554">
        <ele>188.4</ele>
        <time>2014-02-19T16:29:31Z</time>
      </trkpt>
      <trkpt lat="43.537386" lon="1.546423">
        <ele>189.0</ele>
        <time>2014-02-19T16:29:39Z</time>
      </trkpt>
      <trkpt lat="43.537386" lon="1.546299">
        <ele>189.5</ele>
        <time>2014-02-19T16:29:47Z</time>
      </trkpt>
      <trkpt lat="43.537398" lon="1.546165">
        <ele>189.7</ele>
        <time>2014-02-19T16:29:55Z</time>
      </trkpt>
      <trkpt lat="43.537415" lon="1.546027">
        <ele>190.1</ele>
        <time>2014-02-19T16:30:03Z</time>
      </trkpt>
      <trkpt lat="43.537452" lon="1.545889">
        <ele>190.1</ele>
        <time>2014-02-19T16:30:11Z</time>
      </trkpt>
      <trkpt lat="43.537492" lon="1.545767">
        <ele>190.4</ele>
        <time>2014-02-19T16:30:19Z</time>
      </trkpt>
      <trkpt lat="43.537533" lon="1.545642">
        <ele>190.9</ele>
        <time>2014-02-19T16:30:27Z</time>
      </trkpt>
      <trkpt lat="43.537566" lon="1.545519">
        <ele>191.1</ele>
        <time>2014-02-19T16:30:35Z</time>
      </trkpt>
      <trkpt lat="43.537598" lon="1.545397">
        <ele>191.5</ele>
        <time>2014-02-19T16:30:43Z</time>
      </trkpt>
      <trkpt lat="43.537628" lon="1.545279">
        <ele>191.6</ele>
        <time>2014-02-19T16:30:51Z</time>
      </trkpt>
      <trkpt lat="43.537669" lon="1.545162">
        <ele>191.8</ele>
        <time>2014-02-19T16:30:59Z</time>
      </trkpt>
      <trkpt lat="43.537697" lon="1.545046">
        <ele>191.8</ele>
        <time>2014-02-19T16:31:07Z</time>
      </trkpt>
      <trkpt lat="43.537699" lon="1.544916">
        <ele>191.9</ele>
        <time>2014-02-19T16:31:15Z</time>
      </trkpt>
      <trkpt lat="43.537734" lon="1.544783">
        <ele>191.6</ele>
        <time>2014-02-19T16:31:23Z</time>
      </trkpt>
      <trkpt lat="43.537750" lon="1.544660">
        <ele>191.8</ele>
        <time>2014-02-19T16:31:31Z</time>
      </trkpt>
      <trkpt lat="43.537756" lon="1.544523">
        <ele>191.8</ele>
        <time>2014-02-19T16:31:39Z</time>
      </trkpt>
      <trkpt lat="43.537757" lon="1.544380">
        <ele>191.4</ele>
        <time>2014-02-19T16:31:47Z</time>
      </trkpt>
      <trkpt lat="43.537747" lon="1.544252">
        <ele>191.6</ele>
        <time>2014-02-19T16:31:55Z</time>
      </trkpt>
      <trkpt lat="43.537714" lon="1.544117">
        <ele>191.7</ele>
        <time>2014-02-19T16:32:03Z</time>
      </trkpt>
      <trkpt lat="43.537652" lon="1.544013">
        <ele>191.9</ele>
        <time>2014-02-19T16:32:12Z</time>
      </trkpt>
      <trkpt lat="43.537572" lon="1.543939">
        <ele>191.8</ele>
        <time>2014-02-19T16:32:21Z</time>
      </trkpt>
      <trkpt lat="43.537505" lon="1.543848">
        <ele>191.6</ele>
        <time>2014-02-19T16:32:33Z</time>
      </trkpt>
      <trkpt lat="43.537478" lon="1.543771">
        <ele>191.0</ele>
        <time>2014-02-19T16:34:43Z</time>
      </trkpt>
      <trkpt lat="43.537394" lon="1.543695">
        <ele>190.7</ele>
        <time>2014-02-19T16:34:52Z</time>
      </trkpt>
      <trkpt lat="43.537288" lon="1.543609">
        <ele>190.6</ele>
        <time>2014-02-19T16:35:04Z</time>
      </trkpt>
      <trkpt lat="43.537185" lon="1.543507">
        <ele>190.7</ele>
        <time>2014-02-19T16:35:17Z</time>
      </trkpt>
      <trkpt lat="43.537088" lon="1.543366">
        <ele>190.8</ele>
        <time>2014-02-19T16:35:29Z</time>
      </trkpt>
      <trkpt lat="43.537062" lon="1.543229">
        <ele>191.1</ele>
        <time>2014-02-19T16:35:42Z</time>
      </trkpt>
      <trkpt lat="43.537009" lon="1.543090">
        <ele>191.5</ele>
        <time>2014-02-19T16:35:54Z</time>
      </trkpt>
      <trkpt lat="43.536997" lon="1.542880">
        <ele>191.4</ele>
        <time>2014-02-19T16:36:11Z</time>
      </trkpt>
      <trkpt lat="43.536982" lon="1.542756">
        <ele>191.4</ele>
        <time>2014-02-19T16:36:32Z</time>
      </trkpt>
      <trkpt lat="43.537016" lon="1.542717">
        <ele>191.4</ele>
        <time>2014-02-19T16:37:36Z</time>
      </trkpt>
      <trkpt lat="43.536980" lon="1.542539">
        <ele>191.6</ele>
        <time>2014-02-19T16:37:55Z</time>
      </trkpt>
      <trkpt lat="43.536943" lon="1.542341">
        <ele>192.0</ele>
        <time>2014-02-19T16:38:12Z</time>
      </trkpt>
      <trkpt lat="43.536890" lon="1.542111">
        <ele>191.9</ele>
        <time>2014-02-19T16:38:30Z</time>
      </trkpt>
      <trkpt lat="43.536814" lon="1.541886">
        <ele>191.9</ele>
        <time>2014-02-19T16:38:44Z</time>
      </trkpt>
      <trkpt lat="43.536772" lon="1.541684">
        <ele>192.0</ele>
        <time>2014-02-19T16:38:56Z</time>
      </trkpt>
      <trkpt lat="43.536758" lon="1.541502">
        <ele>192.1</ele>
        <time>2014-02-19T16:39:08Z</time>
      </trkpt>
      <trkpt lat="43.536744" lon="1.541283">
        <ele>191.9</ele>
        <time>2014-02-19T16:39:20Z</time>
      </trkpt>
      <trkpt lat="43.536701" lon="1.541115">
        <ele>191.7</ele>
        <time>2014-02-19T16:39:33Z</time>
      </trkpt>
      <trkpt lat="43.536632" lon="1.541022">
        <ele>190.0</ele>
        <time>2014-02-19T16:39:54Z</time>
        <name>Terres-Hautes</name>
      </trkpt>
      <trkpt lat="43.536673" lon="1.540922">
        <ele>188.8</ele>
        <time>2014-02-19T16:41:53Z</time>
      </trkpt>
      <trkpt lat="43.536715" lon="1.540808">
        <ele>189.1</ele>
        <time>2014-02-19T16:42:15Z</time>
      </trkpt>
      <trkpt lat="43.536763" lon="1.540666">
        <ele>188.8</ele>
        <time>2014-02-19T16:42:27Z</time>
      </trkpt>
      <trkpt lat="43.536808" lon="1.540505">
        <ele>188.4</ele>
        <time>2014-02-19T16:42:38Z</time>
      </trkpt>
      <trkpt lat="43.536853" lon="1.540364">
        <ele>188.5</ele>
        <time>2014-02-19T16:42:48Z</time>
      </trkpt>
      <trkpt lat="43.536910" lon="1.540257">
        <ele>188.4</ele>
        <time>2014-02-19T16:42:58Z</time>
      </trkpt>
      <trkpt lat="43.536961" lon="1.540136">
        <ele>188.3</ele>
        <time>2014-02-19T16:43:11Z</time>
      </trkpt>
      <trkpt lat="43.536960" lon="1.540005">
        <ele>188.2</ele>
        <time>2014-02-19T16:44:12Z</time>
      </trkpt>
      <trkpt lat="43.537004" lon="1.539888">
        <ele>188.1</ele>
        <time>2014-02-19T16:44:22Z</time>
      </trkpt>
      <trkpt lat="43.537072" lon="1.539786">
        <ele>188.3</ele>
        <time>2014-02-19T16:44:35Z</time>
      </trkpt>
      <trkpt lat="43.537131" lon="1.539622">
        <ele>188.0</ele>
        <time>2014-02-19T16:44:46Z</time>
      </trkpt>
      <trkpt lat="43.537164" lon="1.539463">
        <ele>188.0</ele>
        <time>2014-02-19T16:44:58Z</time>
      </trkpt>
      <trkpt lat="43.537066" lon="1.539410">
        <ele>186.6</ele>
        <time>2014-02-19T16:45:09Z</time>
      </trkpt>
      <trkpt lat="43.536985" lon="1.539325">
        <ele>183.6</ele>
        <time>2014-02-19T16:45:24Z</time>
      </trkpt>
      <trkpt lat="43.536904" lon="1.539230">
        <ele>181.5</ele>
        <time>2014-02-19T16:45:37Z</time>
      </trkpt>
      <trkpt lat="43.536808" lon="1.539161">
        <ele>179.3</ele>
        <time>2014-02-19T16:45:50Z</time>
      </trkpt>
      <trkpt lat="43.536708" lon="1.539090">
        <ele>177.6</ele>
        <time>2014-02-19T16:46:01Z</time>
      </trkpt>
      <trkpt lat="43.536667" lon="1.538955">
        <ele>175.3</ele>
        <time>2014-02-19T16:46:14Z</time>
      </trkpt>
      <trkpt lat="43.536628" lon="1.538810">
        <ele>173.3</ele>
        <time>2014-02-19T16:46:25Z</time>
      </trkpt>
      <trkpt lat="43.536624" lon="1.538681">
        <ele>171.3</ele>
        <time>2014-02-19T16:46:37Z</time>
      </trkpt>
      <trkpt lat="43.536596" lon="1.538538">
        <ele>169.8</ele>
        <time>2014-02-19T16:46:50Z</time>
      </trkpt>
      <trkpt lat="43.536504" lon="1.538315">
        <ele>167.8</ele>
        <time>2014-02-19T16:47:04Z</time>
      </trkpt>
      <trkpt lat="43.536426" lon="1.538238">
        <ele>166.5</ele>
        <time>2014-02-19T16:47:15Z</time>
      </trkpt>
      <trkpt lat="43.536333" lon="1.538122">
        <ele>164.9</ele>
        <time>2014-02-19T16:47:29Z</time>
      </trkpt>
      <trkpt lat="43.536298" lon="1.537971">
        <ele>163.7</ele>
        <time>2014-02-19T16:47:43Z</time>
      </trkpt>
      <trkpt lat="43.536331" lon="1.537807">
        <ele>162.9</ele>
        <time>2014-02-19T16:47:56Z</time>
      </trkpt>
      <trkpt lat="43.536329" lon="1.537627">
        <ele>162.0</ele>
        <time>2014-02-19T16:48:08Z</time>
      </trkpt>
      <trkpt lat="43.536318" lon="1.537436">
        <ele>161.4</ele>
        <time>2014-02-19T16:48:21Z</time>
      </trkpt>
      <trkpt lat="43.536342" lon="1.537251">
        <ele>161.3</ele>
        <time>2014-02-19T16:48:34Z</time>
      </trkpt>
      <trkpt lat="43.536357" lon="1.537064">
        <ele>160.5</ele>
        <time>2014-02-19T16:48:45Z</time>
      </trkpt>
      <trkpt lat="43.536367" lon="1.536876">
        <ele>159.9</ele>
        <time>2014-02-19T16:48:57Z</time>
      </trkpt>
      <trkpt lat="43.536387" lon="1.536705">
        <ele>158.6</ele>
        <time>2014-02-19T16:49:13Z</time>
      </trkpt>
      <trkpt lat="43.536410" lon="1.536510">
        <ele>157.0</ele>
        <time>2014-02-19T16:49:28Z</time>
      </trkpt>
      <trkpt lat="43.536444" lon="1.536325">
        <ele>155.0</ele>
        <time>2014-02-19T16:49:42Z</time>
      </trkpt>
      <trkpt lat="43.536467" lon="1.536153">
        <ele>154.0</ele>
        <time>2014-02-19T16:49:54Z</time>
      </trkpt>
      <trkpt lat="43.536479" lon="1.535957">
        <ele>153.0</ele>
        <time>2014-02-19T16:50:06Z</time>
      </trkpt>
      <trkpt lat="43.536453" lon="1.535790">
        <ele>152.0</ele>
        <time>2014-02-19T16:50:17Z</time>
      </trkpt>
      <trkpt lat="43.536363" lon="1.535694">
        <ele>151.3</ele>
        <time>2014-02-19T16:50:27Z</time>
      </trkpt>
      <trkpt lat="43.536270" lon="1.535614">
        <ele>150.7</ele>
        <time>2014-02-19T16:50:38Z</time>
      </trkpt>
      <trkpt lat="43.536170" lon="1.535513">
        <ele>150.4</ele>
        <time>2014-02-19T16:50:48Z</time>
      </trkpt>
      <trkpt lat="43.536051" lon="1.535460">
        <ele>150.4</ele>
        <time>2014-02-19T16:50:59Z</time>
      </trkpt>
      <trkpt lat="43.535949" lon="1.535386">
        <ele>149.9</ele>
        <time>2014-02-19T16:51:10Z</time>
      </trkpt>
      <trkpt lat="43.535852" lon="1.535310">
        <ele>150.8</ele>
        <time>2014-02-19T16:51:22Z</time>
      </trkpt>
      <trkpt lat="43.535758" lon="1.535367">
        <ele>151.0</ele>
        <time>2014-02-19T16:51:32Z</time>
      </trkpt>
      <trkpt lat="43.535669" lon="1.535445">
        <ele>151.1</ele>
        <time>2014-02-19T16:51:42Z</time>
      </trkpt>
      <trkpt lat="43.535583" lon="1.535519">
        <ele>151.2</ele>
        <time>2014-02-19T16:51:52Z</time>
      </trkpt>
      <trkpt lat="43.535508" lon="1.535619">
        <ele>151.4</ele>
        <time>2014-02-19T16:52:01Z</time>
      </trkpt>
      <trkpt lat="43.535422" lon="1.535688">
        <ele>151.6</ele>
        <time>2014-02-19T16:52:09Z</time>
      </trkpt>
      <trkpt lat="43.535333" lon="1.535758">
        <ele>151.5</ele>
        <time>2014-02-19T16:52:17Z</time>
      </trkpt>
      <trkpt lat="43.535258" lon="1.535832">
        <ele>151.9</ele>
        <time>2014-02-19T16:52:25Z</time>
      </trkpt>
      <trkpt lat="43.535177" lon="1.535897">
        <ele>152.1</ele>
        <time>2014-02-19T16:52:34Z</time>
      </trkpt>
      <trkpt lat="43.535093" lon="1.535970">
        <ele>152.5</ele>
        <time>2014-02-19T16:52:43Z</time>
      </trkpt>
      <trkpt lat="43.535007" lon="1.536054">
        <ele>152.9</ele>
        <time>2014-02-19T16:52:52Z</time>
      </trkpt>
      <trkpt lat="43.534924" lon="1.536129">
        <ele>153.3</ele>
        <time>2014-02-19T16:53:01Z</time>
      </trkpt>
      <trkpt lat="43.534836" lon="1.536155">
        <ele>153.7</ele>
        <time>2014-02-19T16:53:12Z</time>
      </trkpt>
      <trkpt lat="43.534753" lon="1.536046">
        <ele>153.4</ele>
        <time>2014-02-19T16:53:23Z</time>
      </trkpt>
      <trkpt lat="43.534660" lon="1.535939">
        <ele>152.8</ele>
        <time>2014-02-19T16:53:33Z</time>
      </trkpt>
      <trkpt lat="43.534589" lon="1.535822">
        <ele>152.6</ele>
        <time>2014-02-19T16:53:44Z</time>
      </trkpt>
      <trkpt lat="43.534512" lon="1.535712">
        <ele>152.3</ele>
        <time>2014-02-19T16:53:53Z</time>
      </trkpt>
      <trkpt lat="43.534442" lon="1.535593">
        <ele>152.2</ele>
        <time>2014-02-19T16:54:02Z</time>
      </trkpt>
      <trkpt lat="43.534377" lon="1.535476">
        <ele>152.3</ele>
        <time>2014-02-19T16:54:11Z</time>
      </trkpt>
      <trkpt lat="43.534309" lon="1.535367">
        <ele>152.3</ele>
        <time>2014-02-19T16:54:21Z</time>
      </trkpt>
      <trkpt lat="43.534240" lon="1.535231">
        <ele>152.2</ele>
        <time>2014-02-19T16:54:30Z</time>
      </trkpt>
      <trkpt lat="43.534170" lon="1.535092">
        <ele>152.1</ele>
        <time>2014-02-19T16:54:39Z</time>
      </trkpt>
      <trkpt lat="43.534109" lon="1.534969">
        <ele>152.0</ele>
        <time>2014-02-19T16:54:48Z</time>
      </trkpt>
      <trkpt lat="43.534049" lon="1.534872">
        <ele>151.6</ele>
        <time>2014-02-19T16:54:56Z</time>
      </trkpt>
      <trkpt lat="43.533989" lon="1.534754">
        <ele>151.2</ele>
        <time>2014-02-19T16:55:05Z</time>
      </trkpt>
      <trkpt lat="43.533937" lon="1.534639">
        <ele>151.0</ele>
        <time>2014-02-19T16:55:14Z</time>
      </trkpt>
      <trkpt lat="43.533878" lon="1.534527">
        <ele>151.0</ele>
        <time>2014-02-19T16:55:23Z</time>
      </trkpt>
      <trkpt lat="43.533820" lon="1.534416">
        <ele>150.8</ele>
        <time>2014-02-19T16:55:32Z</time>
      </trkpt>
      <trkpt lat="43.533760" lon="1.534297">
        <ele>150.5</ele>
        <time>2014-02-19T16:55:41Z</time>
      </trkpt>
      <trkpt lat="43.533704" lon="1.534193">
        <ele>150.6</ele>
        <time>2014-02-19T16:55:50Z</time>
      </trkpt>
      <trkpt lat="43.533642" lon="1.534080">
        <ele>150.4</ele>
        <time>2014-02-19T16:55:59Z</time>
      </trkpt>
      <trkpt lat="43.533588" lon="1.533973">
        <ele>150.1</ele>
        <time>2014-02-19T16:56:08Z</time>
      </trkpt>
      <trkpt lat="43.533523" lon="1.533857">
        <ele>149.8</ele>
        <time>2014-02-19T16:56:17Z</time>
      </trkpt>
      <trkpt lat="43.533453" lon="1.533742">
        <ele>149.6</ele>
        <time>2014-02-19T16:56:26Z</time>
      </trkpt>
      <trkpt lat="43.533388" lon="1.533633">
        <ele>149.4</ele>
        <time>2014-02-19T16:56:35Z</time>
      </trkpt>
      <trkpt lat="43.533330" lon="1.533528">
        <ele>149.4</ele>
        <time>2014-02-19T16:56:44Z</time>
      </trkpt>
      <trkpt lat="43.533259" lon="1.533423">
        <ele>149.2</ele>
        <time>2014-02-19T16:56:54Z</time>
      </trkpt>
      <trkpt lat="43.533212" lon="1.533320">
        <ele>149.3</ele>
        <time>2014-02-19T16:57:05Z</time>
      </trkpt>
      <trkpt lat="43.533149" lon="1.533174">
        <ele>149.5</ele>
        <time>2014-02-19T16:57:18Z</time>
      </trkpt>
      <trkpt lat="43.533020" lon="1.533090">
        <ele>148.9</ele>
        <time>2014-02-19T16:57:31Z</time>
      </trkpt>
      <trkpt lat="43.532912" lon="1.533106">
        <ele>149.0</ele>
        <time>2014-02-19T16:57:40Z</time>
      </trkpt>
      <trkpt lat="43.532830" lon="1.533190">
        <ele>149.1</ele>
        <time>2014-02-19T16:57:49Z</time>
      </trkpt>
      <trkpt lat="43.532751" lon="1.533277">
        <ele>149.2</ele>
        <time>2014-02-19T16:57:58Z</time>
      </trkpt>
      <trkpt lat="43.532655" lon="1.533375">
        <ele>149.3</ele>
        <time>2014-02-19T16:58:08Z</time>
      </trkpt>
      <trkpt lat="43.532574" lon="1.533455">
        <ele>149.1</ele>
        <time>2014-02-19T16:58:16Z</time>
      </trkpt>
      <trkpt lat="43.532496" lon="1.533539">
        <ele>149.2</ele>
        <time>2014-02-19T16:58:24Z</time>
      </trkpt>
      <trkpt lat="43.532428" lon="1.533611">
        <ele>149.2</ele>
        <time>2014-02-19T16:58:32Z</time>
      </trkpt>
      <trkpt lat="43.532350" lon="1.533671">
        <ele>149.2</ele>
        <time>2014-02-19T16:58:41Z</time>
      </trkpt>
      <trkpt lat="43.532265" lon="1.533724">
        <ele>149.4</ele>
        <time>2014-02-19T16:58:50Z</time>
      </trkpt>
      <trkpt lat="43.532174" lon="1.533783">
        <ele>149.6</ele>
        <time>2014-02-19T16:58:59Z</time>
      </trkpt>
      <trkpt lat="43.532079" lon="1.533749">
        <ele>149.4</ele>
        <time>2014-02-19T16:59:07Z</time>
      </trkpt>
      <trkpt lat="43.531997" lon="1.533683">
        <ele>149.1</ele>
        <time>2014-02-19T16:59:15Z</time>
      </trkpt>
      <trkpt lat="43.531912" lon="1.533606">
        <ele>148.8</ele>
        <time>2014-02-19T16:59:24Z</time>
      </trkpt>
      <trkpt lat="43.531841" lon="1.533498">
        <ele>148.7</ele>
        <time>2014-02-19T16:59:33Z</time>
      </trkpt>
      <trkpt lat="43.531774" lon="1.533382">
        <ele>148.4</ele>
        <time>2014-02-19T16:59:43Z</time>
      </trkpt>
      <trkpt lat="43.531712" lon="1.533281">
        <ele>148.2</ele>
        <time>2014-02-19T16:59:52Z</time>
      </trkpt>
      <trkpt lat="43.531647" lon="1.533180">
        <ele>147.6</ele>
        <time>2014-02-19T17:00:01Z</time>
      </trkpt>
      <trkpt lat="43.531582" lon="1.533085">
        <ele>147.1</ele>
        <time>2014-02-19T17:00:10Z</time>
      </trkpt>
      <trkpt lat="43.531504" lon="1.532985">
        <ele>146.7</ele>
        <time>2014-02-19T17:00:20Z</time>
      </trkpt>
      <trkpt lat="43.531424" lon="1.532903">
        <ele>146.2</ele>
        <time>2014-02-19T17:00:29Z</time>
      </trkpt>
      <trkpt lat="43.531336" lon="1.532815">
        <ele>145.8</ele>
        <time>2014-02-19T17:00:39Z</time>
      </trkpt>
      <trkpt lat="43.531255" lon="1.532724">
        <ele>145.4</ele>
        <time>2014-02-19T17:00:49Z</time>
      </trkpt>
      <trkpt lat="43.531164" lon="1.532625">
        <ele>144.8</ele>
        <time>2014-02-19T17:00:59Z</time>
      </trkpt>
      <trkpt lat="43.531059" lon="1.532531">
        <ele>144.1</ele>
        <time>2014-02-19T17:01:09Z</time>
      </trkpt>
      <trkpt lat="43.530965" lon="1.532452">
        <ele>143.8</ele>
        <time>2014-02-19T17:01:21Z</time>
      </trkpt>
      <trkpt lat="43.530863" lon="1.532413">
        <ele>143.5</ele>
        <time>2014-02-19T17:01:30Z</time>
      </trkpt>
      <trkpt lat="43.530795" lon="1.532274">
        <ele>143.6</ele>
        <time>2014-02-19T17:01:40Z</time>
      </trkpt>
      <trkpt lat="43.530725" lon="1.532170">
        <ele>143.9</ele>
        <time>2014-02-19T17:01:49Z</time>
      </trkpt>
      <trkpt lat="43.530641" lon="1.532083">
        <ele>144.4</ele>
        <time>2014-02-19T17:01:57Z</time>
      </trkpt>
      <trkpt lat="43.530547" lon="1.531975">
        <ele>145.1</ele>
        <time>2014-02-19T17:02:07Z</time>
      </trkpt>
      <trkpt lat="43.530452" lon="1.531878">
        <ele>146.0</ele>
        <time>2014-02-19T17:02:17Z</time>
      </trkpt>
      <trkpt lat="43.530362" lon="1.531772">
        <ele>146.5</ele>
        <time>2014-02-19T17:02:26Z</time>
      </trkpt>
      <trkpt lat="43.530275" lon="1.531687">
        <ele>146.8</ele>
        <time>2014-02-19T17:02:35Z</time>
      </trkpt>
      <trkpt lat="43.530186" lon="1.531588">
        <ele>146.8</ele>
        <time>2014-02-19T17:02:47Z</time>
      </trkpt>
      <trkpt lat="43.530086" lon="1.531486">
        <ele>146.7</ele>
        <time>2014-02-19T17:02:58Z</time>
      </trkpt>
      <trkpt lat="43.530078" lon="1.531365">
        <ele>146.5</ele>
        <time>2014-02-19T17:03:08Z</time>
      </trkpt>
      <trkpt lat="43.530132" lon="1.531222">
        <ele>146.6</ele>
        <time>2014-02-19T17:03:18Z</time>
      </trkpt>
      <trkpt lat="43.530171" lon="1.531091">
        <ele>146.6</ele>
        <time>2014-02-19T17:03:27Z</time>
      </trkpt>
      <trkpt lat="43.530209" lon="1.530955">
        <ele>146.6</ele>
        <time>2014-02-19T17:03:37Z</time>
      </trkpt>
      <trkpt lat="43.530260" lon="1.530807">
        <ele>146.7</ele>
        <time>2014-02-19T17:03:47Z</time>
      </trkpt>
      <trkpt lat="43.530300" lon="1.530672">
        <ele>146.6</ele>
        <time>2014-02-19T17:03:56Z</time>
      </trkpt>
      <trkpt lat="43.530356" lon="1.530547">
        <ele>146.5</ele>
        <time>2014-02-19T17:04:05Z</time>
      </trkpt>
      <trkpt lat="43.530396" lon="1.530411">
        <ele>146.4</ele>
        <time>2014-02-19T17:04:14Z</time>
      </trkpt>
      <trkpt lat="43.530435" lon="1.530274">
        <ele>146.0</ele>
        <time>2014-02-19T17:04:24Z</time>
      </trkpt>
      <trkpt lat="43.530488" lon="1.530143">
        <ele>146.0</ele>
        <time>2014-02-19T17:04:34Z</time>
      </trkpt>
      <trkpt lat="43.530565" lon="1.530032">
        <ele>145.5</ele>
        <time>2014-02-19T17:04:44Z</time>
      </trkpt>
      <trkpt lat="43.530657" lon="1.529987">
        <ele>145.1</ele>
        <time>2014-02-19T17:04:53Z</time>
      </trkpt>
      <trkpt lat="43.530749" lon="1.529973">
        <ele>144.9</ele>
        <time>2014-02-19T17:05:01Z</time>
      </trkpt>
      <trkpt lat="43.530848" lon="1.530022">
        <ele>144.9</ele>
        <time>2014-02-19T17:05:10Z</time>
      </trkpt>
      <trkpt lat="43.530945" lon="1.530017">
        <ele>144.7</ele>
        <time>2014-02-19T17:05:20Z</time>
      </trkpt>
      <trkpt lat="43.530981" lon="1.530032">
        <ele>144.9</ele>
        <time>2014-02-19T17:06:48Z</time>
      </trkpt>
    </trkseg>
  </trk>
</gpx>

